Time;durP1;ratioP1;P1;durP2;ratioP2;P2;SDS_P1;SDS_P2;PMS_P1;PMS_P2;Temp;Humidity;BMP_temperature;BMP_pressure;BME280_temperature;BME280_humidity;BME280_pressure;Samples;Min_cycle;Max_cycle;Signal;HPM_P1;HPM_P2
2021/03/03 00:01:28;;;;;;;27.23;14.57;;;9.00;34.40;;;;;;4972907;28;20740;-72
2021/03/03 00:03:54;;;;;;;30.90;15.07;;;9.00;34.70;;;;;;4973816;28;20400;-75
2021/03/03 00:06:20;;;;;;;32.90;15.13;;;8.90;34.50;;;;;;4974551;28;20452;-74
2021/03/03 00:08:45;;;;;;;26.63;14.93;;;8.80;35.00;;;;;;4974441;28;20392;-73
2021/03/03 00:11:11;;;;;;;31.30;14.75;;;8.80;35.20;;;;;;4974724;28;20388;-74
2021/03/03 00:13:36;;;;;;;25.98;14.75;;;8.80;35.90;;;;;;4974702;28;20496;-73
2021/03/03 00:16:02;;;;;;;28.88;15.45;;;8.80;35.20;;;;;;4974720;28;20933;-73
2021/03/03 00:18:28;;;;;;;30.40;15.60;;;8.70;35.70;;;;;;4973906;28;20384;-73
2021/03/03 00:20:53;;;;;;;32.63;15.23;;;8.70;35.90;;;;;;4974816;28;20569;-72
2021/03/03 00:23:19;;;;;;;33.55;15.65;;;8.70;35.80;;;;;;4973729;28;20387;-73
2021/03/03 00:25:44;;;;;;;35.80;16.48;;;8.70;35.50;;;;;;4972745;28;20396;-73
2021/03/03 00:28:10;;;;;;;30.63;15.40;;;8.70;35.70;;;;;;4972832;28;20396;-73
2021/03/03 00:30:35;;;;;;;31.27;15.32;;;8.70;36.20;;;;;;4972647;28;20408;-73
2021/03/03 00:33:01;;;;;;;26.80;14.25;;;8.70;36.20;;;;;;4972702;28;20399;-73
2021/03/03 00:35:26;;;;;;;30.65;14.88;;;8.70;35.50;;;;;;4972884;28;20426;-74
2021/03/03 00:37:52;;;;;;;31.83;15.52;;;8.70;35.60;;;;;;4972525;28;20928;-73
2021/03/03 00:40:17;;;;;;;34.73;15.73;;;8.70;35.80;;;;;;4972845;28;20734;-74
2021/03/03 00:42:43;;;;;;;30.60;15.57;;;8.70;35.90;;;;;;4972769;28;20400;-72
2021/03/03 00:45:09;;;;;;;28.83;15.53;;;8.60;36.20;;;;;;4972575;28;20392;-72
2021/03/03 00:47:35;;;;;;;29.02;14.80;;;8.60;36.30;;;;;;4972021;28;20402;-72
2021/03/03 00:50:02;;;;;;;26.53;15.20;;;8.60;36.60;;;;;;4972576;28;21010;-72
2021/03/03 00:52:27;;;;;;;30.25;15.65;;;8.50;36.50;;;;;;4972494;28;20451;-73
2021/03/03 00:54:53;;;;;;;30.35;16.05;;;8.60;36.30;;;;;;4972764;28;20821;-73
2021/03/03 00:57:18;;;;;;;28.67;14.75;;;8.60;36.70;;;;;;4973882;28;20773;-73
2021/03/03 00:59:44;;;;;;;32.00;16.50;;;8.60;36.20;;;;;;4973227;28;20446;-73
2021/03/03 01:02:09;;;;;;;29.37;15.80;;;8.50;36.50;;;;;;4973675;28;20396;-72
2021/03/03 01:04:36;;;;;;;32.13;16.17;;;8.60;36.20;;;;;;4972724;28;20404;-73
2021/03/03 01:07:02;;;;;;;30.20;16.03;;;8.50;36.10;;;;;;4972566;28;20406;-74
2021/03/03 01:09:27;;;;;;;28.30;15.47;;;8.50;36.20;;;;;;4972560;28;20396;-73
2021/03/03 01:11:53;;;;;;;29.90;15.17;;;8.50;36.90;;;;;;4972643;28;20420;-73
2021/03/03 01:14:18;;;;;;;29.50;16.27;;;8.50;36.80;;;;;;4972793;28;20464;-74
2021/03/03 01:16:49;;;;;;;34.90;15.57;;;8.40;36.50;;;;;;4972371;28;20398;-73
2021/03/03 01:19:15;;;;;;;33.60;15.43;;;8.50;36.60;;;;;;4972197;28;20394;-73
2021/03/03 01:21:40;;;;;;;26.85;14.95;;;8.40;36.90;;;;;;4972130;28;20380;-73
2021/03/03 01:24:06;;;;;;;25.63;15.30;;;8.50;36.30;;;;;;4972380;28;20441;-73
2021/03/03 01:26:32;;;;;;;28.50;15.80;;;8.50;36.60;;;;;;4974922;28;20404;-73
2021/03/03 01:28:58;;;;;;;33.10;15.88;;;8.50;37.50;;;;;;4976485;28;20392;-72
2021/03/03 01:31:23;;;;;;;33.30;16.30;;;8.40;36.60;;;;;;4975957;28;20427;-73
2021/03/03 01:33:49;;;;;;;29.80;14.70;;;8.40;36.70;;;;;;4976116;28;20392;-73
2021/03/03 01:36:14;;;;;;;30.20;15.10;;;8.40;36.50;;;;;;4976635;28;20408;-72
2021/03/03 01:38:40;;;;;;;34.47;16.80;;;8.40;36.80;;;;;;4975810;28;20404;-72
2021/03/03 01:41:05;;;;;;;30.07;14.70;;;8.40;36.50;;;;;;4976762;28;20847;-72
2021/03/03 01:43:32;;;;;;;30.13;14.87;;;8.40;36.80;;;;;;4975862;28;20400;-73
2021/03/03 01:45:58;;;;;;;29.65;15.30;;;8.40;36.60;;;;;;4976383;28;20833;-73
2021/03/03 01:48:23;;;;;;;29.92;16.55;;;8.40;36.30;;;;;;4977977;28;20423;-71
2021/03/03 01:50:49;;;;;;;33.58;15.77;;;8.40;36.50;;;;;;4976076;28;20859;-73
2021/03/03 01:53:15;;;;;;;30.70;15.43;;;8.30;36.40;;;;;;4976251;28;20403;-74
2021/03/03 01:55:40;;;;;;;29.75;15.45;;;8.30;36.70;;;;;;4978410;28;20415;-73
2021/03/03 01:58:06;;;;;;;28.07;15.00;;;8.30;36.70;;;;;;4979611;28;20392;-73
2021/03/03 02:00:32;;;;;;;30.53;15.50;;;8.30;36.70;;;;;;4979759;28;20388;-73
2021/03/03 02:02:58;;;;;;;34.50;16.23;;;8.30;36.70;;;;;;4980783;28;20513;-73
2021/03/03 02:05:25;;;;;;;29.20;16.02;;;8.30;36.40;;;;;;4981028;28;20396;-73
2021/03/03 02:08:15;;;;;;;27.52;15.13;;;8.30;36.30;;;;;;4980421;28;20475;-73
2021/03/03 02:10:57;;;;;;;29.95;15.13;;;8.30;37.80;;;;;;4981176;28;20382;-72
2021/03/03 02:13:34;;;;;;;32.90;16.00;;;8.20;38.10;;;;;;4980837;28;20432;-73
2021/03/03 02:16:03;;;;;;;36.78;16.48;;;8.20;37.20;;;;;;4962934;28;20450;-72
2021/03/03 02:18:30;;;;;;;31.80;15.77;;;8.20;37.40;;;;;;4979455;28;20387;-73
2021/03/03 02:21:11;;;;;;;33.17;15.63;;;8.20;36.90;;;;;;4980311;28;20397;-72
2021/03/03 02:23:49;;;;;;;34.55;15.32;;;8.20;36.90;;;;;;4980068;28;20395;-72
2021/03/03 02:26:16;;;;;;;28.50;15.00;;;8.20;36.70;;;;;;4980466;28;20391;-73
2021/03/03 02:28:43;;;;;;;32.33;15.57;;;8.20;37.10;;;;;;4980257;28;20445;-72
2021/03/03 02:31:12;;;;;;;33.53;15.50;;;8.20;37.40;;;;;;4979728;28;20428;-73
2021/03/03 02:33:38;;;;;;;30.77;15.93;;;8.20;37.10;;;;;;4979584;28;20447;-72
2021/03/03 02:36:04;;;;;;;29.90;15.45;;;8.10;37.00;;;;;;4979994;28;20510;-72
2021/03/03 02:38:30;;;;;;;30.47;15.30;;;8.10;37.30;;;;;;4980001;28;20392;-72
2021/03/03 02:40:56;;;;;;;38.55;16.08;;;8.10;38.00;;;;;;4979681;28;20397;-73
2021/03/03 02:43:23;;;;;;;31.15;14.93;;;8.00;38.40;;;;;;4978282;28;20392;-73
2021/03/03 02:45:48;;;;;;;29.63;15.27;;;8.00;37.00;;;;;;4975220;28;20396;-72
2021/03/03 02:48:16;;;;;;;31.73;15.87;;;8.00;37.30;;;;;;4975761;28;20476;-72
2021/03/03 02:50:42;;;;;;;28.88;15.25;;;8.00;37.10;;;;;;4975303;28;20407;-72
2021/03/03 02:53:08;;;;;;;31.33;15.37;;;8.00;37.20;;;;;;4975334;28;20399;-72
2021/03/03 02:55:33;;;;;;;31.45;15.18;;;8.00;37.40;;;;;;4975370;28;20411;-72
2021/03/03 02:58:01;;;;;;;33.40;15.40;;;8.00;37.20;;;;;;4975502;28;20392;-73
2021/03/03 03:00:32;;;;;;;29.50;15.93;;;8.00;36.70;;;;;;4973730;28;20463;-72
2021/03/03 03:03:11;;;;;;;27.20;14.07;;;8.00;37.30;;;;;;4973964;28;20377;-73
2021/03/03 03:05:41;;;;;;;34.60;16.00;;;8.00;37.00;;;;;;4973651;28;20387;-71
2021/03/03 03:08:11;;;;;;;32.10;15.80;;;8.10;36.80;;;;;;4973112;28;20423;-72
2021/03/03 03:10:37;;;;;;;34.00;15.13;;;8.10;36.70;;;;;;4973800;28;20449;-72
2021/03/03 03:13:06;;;;;;;36.30;16.45;;;8.10;36.60;;;;;;4974139;28;20396;-72
2021/03/03 03:15:33;;;;;;;29.98;15.55;;;8.10;36.70;;;;;;4973805;28;20406;-73
2021/03/03 03:18:04;;;;;;;36.72;16.23;;;8.10;36.20;;;;;;4974023;28;20752;-71
2021/03/03 03:20:32;;;;;;;32.28;16.27;;;8.20;35.80;;;;;;4973675;28;20386;-74
2021/03/03 03:23:00;;;;;;;27.77;15.02;;;8.10;36.60;;;;;;4973929;28;20389;-72
2021/03/03 03:25:27;;;;;;;31.25;15.13;;;8.10;36.30;;;;;;4974911;28;20528;-73
2021/03/03 03:27:54;;;;;;;30.95;15.95;;;8.10;36.10;;;;;;4974665;28;20446;-72
2021/03/03 03:30:21;;;;;;;30.45;15.00;;;8.10;37.00;;;;;;4974464;28;20393;-72
2021/03/03 03:32:46;;;;;;;32.67;16.10;;;8.10;36.50;;;;;;4973848;28;20406;-74
2021/03/03 03:35:14;;;;;;;36.65;15.85;;;8.10;36.20;;;;;;4973588;28;20412;-73
2021/03/03 03:37:40;;;;;;;36.10;15.93;;;8.10;36.50;;;;;;4973915;28;20750;-73
2021/03/03 03:40:06;;;;;;;32.92;16.02;;;8.10;35.60;;;;;;4973442;28;20387;-73
2021/03/03 03:42:33;;;;;;;30.75;15.13;;;8.10;36.00;;;;;;4973235;28;20392;-72
2021/03/03 03:45:00;;;;;;;33.17;15.60;;;8.10;36.00;;;;;;4973701;28;20400;-73
2021/03/03 03:47:26;;;;;;;36.95;16.35;;;8.20;35.60;;;;;;4973273;28;20933;-73
2021/03/03 03:49:52;;;;;;;31.63;15.93;;;8.10;36.20;;;;;;4973076;28;20404;-73
2021/03/03 03:52:19;;;;;;;29.48;15.38;;;8.00;36.60;;;;;;4973293;28;20427;-73
2021/03/03 03:54:52;;;;;;;29.95;16.48;;;8.00;36.20;;;;;;4973437;28;20851;-73
2021/03/03 03:57:19;;;;;;;28.45;14.77;;;7.90;36.80;;;;;;4973840;28;20426;-73
2021/03/03 03:59:45;;;;;;;28.10;14.50;;;7.90;36.70;;;;;;4973641;28;20474;-72
2021/03/03 04:02:11;;;;;;;39.15;17.05;;;7.90;37.60;;;;;;4973402;28;20404;-72
2021/03/03 04:04:37;;;;;;;32.03;16.85;;;7.90;37.70;;;;;;4973532;28;20747;-72
2021/03/03 04:07:04;;;;;;;36.45;15.93;;;7.80;37.50;;;;;;4973630;28;20534;-72
2021/03/03 04:09:30;;;;;;;34.80;16.15;;;7.80;36.80;;;;;;4973276;28;20416;-72
2021/03/03 04:11:56;;;;;;;34.38;16.48;;;7.90;36.80;;;;;;4972913;28;20502;-71
2021/03/03 04:14:22;;;;;;;29.02;15.88;;;7.80;37.00;;;;;;4972703;28;20403;-71
2021/03/03 04:16:48;;;;;;;32.73;16.17;;;7.90;37.40;;;;;;4972860;28;20392;-72
2021/03/03 04:19:13;;;;;;;29.10;15.13;;;7.80;37.30;;;;;;4972224;28;20916;-75
2021/03/03 04:21:39;;;;;;;28.85;15.93;;;7.80;37.40;;;;;;4972714;28;20393;-73
2021/03/03 04:24:05;;;;;;;29.63;15.38;;;7.80;37.20;;;;;;4972855;28;20396;-73
2021/03/03 04:26:31;;;;;;;30.15;16.00;;;7.70;37.90;;;;;;4978868;28;20396;-71
2021/03/03 04:28:57;;;;;;;31.30;16.30;;;7.80;37.50;;;;;;4979065;28;20403;-72
2021/03/03 04:31:22;;;;;;;33.27;15.83;;;7.80;37.50;;;;;;4980488;28;20396;-73
2021/03/03 04:33:48;;;;;;;37.80;16.87;;;7.80;37.60;;;;;;4980193;28;20400;-72
2021/03/03 04:36:13;;;;;;;33.63;16.30;;;7.80;37.50;;;;;;4977828;28;20426;-72
2021/03/03 04:38:39;;;;;;;36.97;17.70;;;7.70;38.00;;;;;;4978263;28;20531;-73
2021/03/03 04:41:04;;;;;;;32.40;16.63;;;7.70;38.40;;;;;;4978375;28;20392;-72
2021/03/03 04:43:30;;;;;;;36.47;17.00;;;7.60;38.50;;;;;;4978772;28;20751;-73
2021/03/03 04:45:55;;;;;;;35.43;17.07;;;7.60;39.10;;;;;;4976843;28;20458;-74
2021/03/03 04:48:21;;;;;;;38.77;16.90;;;7.60;38.80;;;;;;4972179;28;20400;-71
2021/03/03 04:50:46;;;;;;;30.83;16.37;;;7.60;38.00;;;;;;4971949;28;20404;-73
2021/03/03 04:53:12;;;;;;;32.30;17.07;;;7.60;38.60;;;;;;4971837;28;20391;-71
2021/03/03 04:55:37;;;;;;;30.60;16.83;;;7.50;38.80;;;;;;4971670;28;20438;-73
2021/03/03 04:58:03;;;;;;;34.17;17.67;;;7.60;38.30;;;;;;4971796;28;20399;-71
2021/03/03 05:00:28;;;;;;;33.33;17.27;;;7.60;38.30;;;;;;4971430;28;20475;-71
2021/03/03 05:02:54;;;;;;;28.50;15.90;;;7.60;38.10;;;;;;4972210;28;20403;-72
2021/03/03 05:05:19;;;;;;;31.77;16.30;;;7.60;38.50;;;;;;4971752;28;20878;-72
2021/03/03 05:07:45;;;;;;;29.73;16.13;;;7.60;38.60;;;;;;4971526;28;20835;-71
2021/03/03 05:10:11;;;;;;;31.67;16.50;;;7.50;38.50;;;;;;4971776;28;20764;-74
2021/03/03 05:12:37;;;;;;;34.40;17.63;;;7.50;38.60;;;;;;4954384;28;20399;-72
2021/03/03 05:15:03;;;;;;;31.63;17.13;;;7.50;38.80;;;;;;4971588;28;20897;-73
2021/03/03 05:17:29;;;;;;;36.72;18.17;;;7.60;39.00;;;;;;4971566;28;20424;-73
2021/03/03 05:19:54;;;;;;;32.83;17.07;;;7.50;39.30;;;;;;4971629;28;20423;-72
2021/03/03 05:22:20;;;;;;;34.20;17.33;;;7.50;39.20;;;;;;4971494;28;20390;-73
2021/03/03 05:24:45;;;;;;;33.97;18.20;;;7.40;39.80;;;;;;4971563;28;20938;-73
2021/03/03 05:27:11;;;;;;;35.67;17.33;;;7.40;40.00;;;;;;4970837;28;20392;-72
2021/03/03 05:29:36;;;;;;;32.33;17.10;;;7.40;40.00;;;;;;4970238;28;20396;-72
2021/03/03 05:32:02;;;;;;;33.33;17.48;;;7.30;40.10;;;;;;4975261;28;20758;-73
2021/03/03 05:34:27;;;;;;;33.90;17.88;;;7.30;40.20;;;;;;4975287;28;20395;-74
2021/03/03 05:36:53;;;;;;;34.33;17.15;;;7.30;40.70;;;;;;4971789;28;20400;-74
2021/03/03 05:39:18;;;;;;;30.83;16.90;;;7.30;41.30;;;;;;4970968;28;20376;-73
2021/03/03 05:41:44;;;;;;;35.50;17.42;;;7.20;41.30;;;;;;4971058;28;20415;-73
2021/03/03 05:44:10;;;;;;;39.00;18.20;;;7.30;42.00;;;;;;4971120;28;20820;-73
2021/03/03 05:46:37;;;;;;;36.80;17.70;;;7.20;41.60;;;;;;4970990;28;20499;-74
2021/03/03 05:49:04;;;;;;;40.60;18.30;;;7.20;41.90;;;;;;4971428;28;20400;-73
2021/03/03 05:51:32;;;;;;;37.05;17.40;;;7.20;41.90;;;;;;4971663;28;21036;-73
2021/03/03 05:54:00;;;;;;;37.15;18.33;;;7.10;42.00;;;;;;4971502;28;20391;-74
2021/03/03 05:56:27;;;;;;;41.78;17.98;;;7.10;41.70;;;;;;4971290;28;20439;-74
2021/03/03 05:58:53;;;;;;;31.37;17.20;;;7.10;41.60;;;;;;4971352;28;20418;-73
2021/03/03 06:01:19;;;;;;;39.72;17.95;;;7.10;41.90;;;;;;4971293;28;20401;-74
2021/03/03 06:03:45;;;;;;;36.38;17.50;;;7.00;41.90;;;;;;4971409;28;21012;-72
2021/03/03 06:06:12;;;;;;;29.25;16.95;;;7.10;42.30;;;;;;4971542;28;20483;-73
2021/03/03 06:08:37;;;;;;;35.00;19.17;;;7.00;42.40;;;;;;4971338;28;20458;-73
2021/03/03 06:11:04;;;;;;;30.47;17.60;;;7.00;42.80;;;;;;4971345;28;20388;-73
2021/03/03 06:13:30;;;;;;;89.28;21.55;;;6.90;42.90;;;;;;4953822;28;20392;-73
2021/03/03 06:15:57;;;;;;;44.42;18.58;;;7.00;43.10;;;;;;4971608;28;20831;-73
2021/03/03 06:18:24;;;;;;;35.73;16.90;;;7.00;43.60;;;;;;4971541;28;20431;-73
2021/03/03 06:20:52;;;;;;;45.88;18.38;;;7.20;42.80;;;;;;4971273;28;20388;-74
2021/03/03 06:23:21;;;;;;;37.42;16.88;;;7.20;42.20;;;;;;4971283;28;20419;-74
2021/03/03 06:25:49;;;;;;;32.40;17.60;;;7.30;41.00;;;;;;4970972;28;20409;-73
2021/03/03 06:28:40;;;;;;;36.40;18.17;;;7.30;41.60;;;;;;4970930;28;20412;-74
2021/03/03 06:31:26;;;;;;;43.85;18.50;;;7.30;41.40;;;;;;4971100;28;20765;-72
2021/03/03 06:33:53;;;;;;;40.35;18.05;;;7.40;39.60;;;;;;4971185;28;20788;-74
2021/03/03 06:36:27;;;;;;;39.75;18.80;;;7.30;40.30;;;;;;4971071;28;20493;-74
2021/03/03 06:38:53;;;;;;;41.47;18.48;;;7.20;40.90;;;;;;4973109;28;20392;-74
2021/03/03 06:41:19;;;;;;;39.53;18.35;;;7.20;40.80;;;;;;4975502;28;20750;-75
2021/03/03 06:43:56;;;;;;;44.25;18.95;;;7.20;41.30;;;;;;4977552;28;20396;-73
2021/03/03 06:46:22;;;;;;;33.17;17.27;;;7.20;41.30;;;;;;4976791;28;20891;-73
2021/03/03 06:48:48;;;;;;;41.92;18.85;;;7.20;41.60;;;;;;4974220;28;20403;-73
2021/03/03 06:51:25;;;;;;;38.45;19.15;;;7.20;41.00;;;;;;4959142;28;20400;-73
2021/03/03 06:53:53;;;;;;;37.30;18.90;;;7.20;41.00;;;;;;4977226;28;20481;-74
2021/03/03 06:56:35;;;;;;;39.83;19.63;;;7.20;40.90;;;;;;4977219;28;20472;-74
2021/03/03 06:59:15;;;;;;;41.47;19.23;;;7.30;40.70;;;;;;4977246;28;20431;-74
2021/03/03 07:01:42;;;;;;;38.55;18.77;;;7.40;40.20;;;;;;4974654;28;20392;-73
2021/03/03 07:04:20;;;;;;;39.50;18.65;;;7.40;39.80;;;;;;4973993;28;20390;-73
2021/03/03 07:06:46;;;;;;;40.28;18.58;;;7.50;39.90;;;;;;4973821;28;20384;-75
2021/03/03 07:09:12;;;;;;;47.50;18.97;;;7.50;39.30;;;;;;4974018;28;20442;-73
2021/03/03 07:11:42;;;;;;;40.60;18.70;;;7.50;39.60;;;;;;4973281;28;20746;-72
2021/03/03 07:14:19;;;;;;;37.97;17.88;;;7.70;39.30;;;;;;4973770;28;20874;-72
2021/03/03 07:17:13;;;;;;;44.08;19.83;;;7.80;37.90;;;;;;4973820;28;20477;-71
2021/03/03 07:19:44;;;;;;;42.08;19.35;;;7.80;38.10;;;;;;4973567;28;20468;-72
2021/03/03 07:22:25;;;;;;;61.88;21.35;;;7.80;38.00;;;;;;4973465;28;20380;-74
2021/03/03 07:24:53;;;;;;;45.17;18.88;;;7.80;38.00;;;;;;4973645;28;20419;-72
2021/03/03 07:27:20;;;;;;;43.35;19.30;;;7.80;37.50;;;;;;4973366;28;20722;-71
2021/03/03 07:29:51;;;;;;;40.45;19.25;;;7.80;37.30;;;;;;4973427;28;20392;-69
2021/03/03 07:32:18;;;;;;;38.28;17.90;;;7.90;37.20;;;;;;4973398;28;20428;-70
2021/03/03 07:34:48;;;;;;;43.42;19.92;;;8.10;36.80;;;;;;4973704;28;20414;-71
2021/03/03 07:37:19;;;;;;;39.88;18.02;;;8.60;35.20;;;;;;4973395;28;20386;-71
2021/03/03 07:40:09;;;;;;;42.05;18.63;;;8.60;33.90;;;;;;4973248;28;20488;-71
2021/03/03 07:42:36;;;;;;;46.03;19.05;;;8.80;34.20;;;;;;4967970;28;20407;-70
2021/03/03 07:45:06;;;;;;;39.60;18.27;;;9.00;33.50;;;;;;4973789;28;20419;-70
2021/03/03 07:47:35;;;;;;;38.65;18.60;;;9.10;32.20;;;;;;4955439;28;20404;-70
2021/03/03 07:50:06;;;;;;;44.53;18.50;;;9.10;31.90;;;;;;4956061;28;20387;-70
2021/03/03 07:52:33;;;;;;;38.03;17.67;;;9.20;31.20;;;;;;4972725;28;20388;-70
2021/03/03 07:54:59;;;;;;;36.60;17.92;;;9.30;30.60;;;;;;4973526;28;20499;-70
2021/03/03 07:57:27;;;;;;;47.22;18.38;;;9.50;30.60;;;;;;4973199;28;20385;-72
2021/03/03 07:59:54;;;;;;;37.97;19.38;;;9.60;29.50;;;;;;4973308;28;20392;-70
2021/03/03 08:02:19;;;;;;;34.92;17.98;;;9.70;29.40;;;;;;4972882;28;20399;-71
2021/03/03 08:04:45;;;;;;;44.53;19.53;;;9.90;28.40;;;;;;4955477;28;20392;-71
2021/03/03 08:07:16;;;;;;;39.92;19.30;;;10.10;27.90;;;;;;4972605;28;20403;-71
2021/03/03 08:10:14;;;;;;;40.05;19.10;;;10.20;27.80;;;;;;4972215;28;21054;-72
2021/03/03 08:13:02;;;;;;;38.53;18.80;;;10.30;27.40;;;;;;4959380;28;20415;-73
2021/03/03 08:15:45;;;;;;;39.30;19.38;;;10.30;27.50;;;;;;4977443;28;20478;-73
2021/03/03 08:18:31;;;;;;;45.58;19.10;;;10.30;27.40;;;;;;4977737;28;20520;-72
2021/03/03 08:21:01;;;;;;;44.25;20.45;;;10.40;26.50;;;;;;4976478;28;20407;-72
2021/03/03 08:23:30;;;;;;;40.92;19.20;;;10.50;26.30;;;;;;4956387;28;20404;-73
2021/03/03 08:25:55;;;;;;;42.90;18.80;;;10.40;25.90;;;;;;4972646;28;20519;-72
2021/03/03 08:28:43;;;;;;;38.67;19.43;;;10.40;26.40;;;;;;4972708;28;20475;-72
2021/03/03 08:31:09;;;;;;;33.45;19.00;;;10.40;26.50;;;;;;4972706;28;20411;-72
2021/03/03 08:33:42;;;;;;;37.20;19.42;;;10.50;26.20;;;;;;4954676;28;20419;-72
2021/03/03 08:36:30;;;;;;;35.47;18.80;;;10.60;26.20;;;;;;4972320;28;20473;-72
2021/03/03 08:38:55;;;;;;;39.88;18.75;;;10.60;25.40;;;;;;4973589;28;20487;-73
2021/03/03 08:41:28;;;;;;;37.38;19.52;;;10.60;26.00;;;;;;4956949;28;20420;-71
2021/03/03 08:44:15;;;;;;;37.10;19.15;;;10.80;25.30;;;;;;4940301;29;20408;-73
2021/03/03 08:46:49;;;;;;;36.28;18.90;;;10.70;26.00;;;;;;4971196;28;20488;-75
2021/03/03 08:49:15;;;;;;;39.83;20.45;;;10.50;25.70;;;;;;4976305;28;20816;-72
2021/03/03 08:51:45;;;;;;;40.40;19.57;;;10.30;26.20;;;;;;4976729;28;20400;-73
2021/03/03 08:54:19;;;;;;;41.13;20.07;;;10.40;26.60;;;;;;4976714;28;20388;-74
2021/03/03 08:56:52;;;;;;;44.28;20.77;;;10.50;26.20;;;;;;4977161;28;20455;-73
2021/03/03 08:59:40;;;;;;;39.25;20.20;;;10.40;26.90;;;;;;4976327;28;20479;-72
2021/03/03 09:02:08;;;;;;;43.78;20.27;;;10.40;26.90;;;;;;4972579;28;20476;-71
2021/03/03 09:04:56;;;;;;;46.97;21.17;;;10.50;26.70;;;;;;4972791;28;20526;-71
2021/03/03 09:07:32;;;;;;;41.65;21.10;;;10.80;26.60;;;;;;4971518;28;20816;-72
2021/03/03 09:10:00;;;;;;;39.85;21.00;;;10.90;25.50;;;;;;4970833;28;20450;-72
2021/03/03 09:12:30;;;;;;;38.67;20.33;;;11.10;26.60;;;;;;4965497;28;20513;-71
2021/03/03 09:14:58;;;;;;;42.45;21.52;;;11.20;24.90;;;;;;4952362;29;20410;-72
2021/03/03 09:17:27;;;;;;;41.60;21.30;;;11.30;25.20;;;;;;4963551;28;20389;-72
2021/03/03 09:19:59;;;;;;;44.35;21.63;;;11.40;25.50;;;;;;4971323;28;20440;-71
2021/03/03 09:22:27;;;;;;;38.83;20.40;;;11.50;24.50;;;;;;4970947;28;20402;-72
2021/03/03 09:24:55;;;;;;;40.58;21.88;;;11.60;24.10;;;;;;4972176;28;20408;-72
2021/03/03 09:27:25;;;;;;;251.60;146.88;;;11.70;23.00;;;;;;4971663;28;20396;-71
2021/03/03 09:29:51;;;;;;;188.18;109.15;;;11.80;23.90;;;;;;4971335;28;20428;-72
2021/03/03 09:32:20;;;;;;;63.92;30.80;;;12.00;24.50;;;;;;4973470;28;20408;-72
2021/03/03 09:34:55;;;;;;;40.20;21.88;;;12.10;22.30;;;;;;4974782;28;20404;-72
2021/03/03 09:37:21;;;;;;;43.78;22.67;;;12.30;20.80;;;;;;4975011;28;20402;-72
2021/03/03 09:40:12;;;;;;;98.22;45.92;;;12.30;21.20;;;;;;4975260;28;20414;-73
2021/03/03 09:42:48;;;;;;;85.18;43.80;;;12.60;21.60;;;;;;4972485;28;20463;-72
2021/03/03 09:45:21;;;;;;;82.72;45.95;;;12.80;20.70;;;;;;4975575;28;20403;-72
2021/03/03 09:47:48;;;;;;;43.50;22.80;;;13.00;20.40;;;;;;4973496;28;20404;-72
2021/03/03 09:50:24;;;;;;;52.63;26.88;;;13.30;18.80;;;;;;4973619;28;20454;-73
2021/03/03 09:52:54;;;;;;;49.72;25.67;;;13.70;18.30;;;;;;4954059;28;20403;-71
2021/03/03 09:55:25;;;;;;;39.85;22.67;;;14.00;17.60;;;;;;4972418;28;20420;-72
2021/03/03 09:57:52;;;;;;;48.35;25.20;;;13.70;17.30;;;;;;4975516;28;20407;-73
2021/03/03 10:00:21;;;;;;;42.40;23.00;;;13.70;18.50;;;;;;4975279;28;20422;-73
2021/03/03 10:03:01;;;;;;;46.33;23.25;;;13.50;17.70;;;;;;4974532;28;20628;-73
2021/03/03 10:05:29;;;;;;;43.67;22.63;;;13.50;18.10;;;;;;4974151;28;20392;-72
2021/03/03 10:07:56;;;;;;;45.85;24.85;;;13.50;18.40;;;;;;4971839;28;20471;-72
2021/03/03 10:10:24;;;;;;;49.10;23.90;;;13.60;18.90;;;;;;4971889;28;20435;-72
2021/03/03 10:12:50;;;;;;;54.88;24.77;;;13.60;18.20;;;;;;4971582;28;20770;-73
2021/03/03 10:15:20;;;;;;;49.33;24.40;;;13.80;17.70;;;;;;4973453;28;20794;-71
2021/03/03 10:17:52;;;;;;;47.53;24.40;;;14.00;17.60;;;;;;4979183;28;20384;-73
2021/03/03 10:20:48;;;;;;;56.10;25.98;;;14.10;17.50;;;;;;4977406;28;20405;-73
2021/03/03 10:23:14;;;;;;;54.13;27.25;;;14.10;17.10;;;;;;4973095;28;20411;-73
2021/03/03 10:25:45;;;;;;;56.90;27.30;;;14.00;17.20;;;;;;4978805;28;20551;-74
2021/03/03 10:28:14;;;;;;;46.25;25.90;;;14.00;17.40;;;;;;4978146;28;20392;-73
2021/03/03 10:30:45;;;;;;;59.78;28.27;;;14.30;16.90;;;;;;4970199;28;20870;-74
2021/03/03 10:33:35;;;;;;;52.45;28.15;;;14.30;17.20;;;;;;4978498;28;20422;-72
2021/03/03 10:36:06;;;;;;;55.83;28.35;;;14.20;17.70;;;;;;4978558;28;21021;-73
2021/03/03 10:38:35;;;;;;;54.72;29.23;;;14.10;17.50;;;;;;4979231;28;20399;-74
2021/03/03 10:41:05;;;;;;;55.20;30.42;;;14.10;17.70;;;;;;4977933;28;20506;-73
2021/03/03 10:43:31;;;;;;;56.15;29.52;;;14.20;17.60;;;;;;4959034;28;20407;-73
2021/03/03 10:46:09;;;;;;;60.03;29.73;;;14.20;17.60;;;;;;4967036;28;20799;-73
2021/03/03 10:48:35;;;;;;;59.20;29.95;;;14.30;17.30;;;;;;4977768;28;20396;-73
2021/03/03 10:51:03;;;;;;;59.93;32.23;;;14.50;17.50;;;;;;4978045;28;20420;-72
2021/03/03 10:53:48;;;;;;;52.87;29.60;;;14.50;17.10;;;;;;4978436;28;20392;-75
2021/03/03 10:56:27;;;;;;;56.08;29.98;;;14.50;17.20;;;;;;4978265;28;20420;-74
2021/03/03 10:58:59;;;;;;;59.95;30.13;;;14.60;17.40;;;;;;4977580;28;20384;-74
2021/03/03 11:01:41;;;;;;;64.72;32.53;;;14.60;17.10;;;;;;4976436;28;20486;-73
2021/03/03 11:04:09;;;;;;;63.53;35.17;;;14.70;17.30;;;;;;4976169;28;20396;-74
2021/03/03 11:06:35;;;;;;;61.90;33.28;;;14.80;17.60;;;;;;4974937;28;20738;-74
2021/03/03 11:09:04;;;;;;;64.07;33.20;;;14.70;17.40;;;;;;4958561;28;20403;-73
2021/03/03 11:11:29;;;;;;;65.10;35.45;;;14.70;17.80;;;;;;4959529;28;20428;-73
2021/03/03 11:13:55;;;;;;;58.75;34.08;;;14.70;17.70;;;;;;4976653;28;20482;-73
2021/03/03 11:16:21;;;;;;;66.40;34.35;;;14.90;17.90;;;;;;4974029;28;20531;-72
2021/03/03 11:18:47;;;;;;;59.05;34.25;;;14.90;17.50;;;;;;4974850;28;20455;-72
2021/03/03 11:21:12;;;;;;;66.25;36.00;;;14.90;17.70;;;;;;4975571;28;20396;-73
2021/03/03 11:23:38;;;;;;;71.70;38.88;;;15.00;17.70;;;;;;4975629;28;20404;-73
2021/03/03 11:26:04;;;;;;;67.03;38.67;;;15.00;18.20;;;;;;4976997;28;20400;-75
2021/03/03 11:28:29;;;;;;;74.82;37.03;;;15.10;17.80;;;;;;4959748;28;20427;-73
2021/03/03 11:30:55;;;;;;;69.13;36.85;;;15.20;17.50;;;;;;4975818;28;20970;-74
2021/03/03 11:33:21;;;;;;;70.63;37.33;;;15.30;17.50;;;;;;4975735;28;20428;-74
2021/03/03 11:35:47;;;;;;;69.20;36.50;;;15.50;17.20;;;;;;4976349;28;20427;-73
2021/03/03 11:38:13;;;;;;;59.92;34.50;;;15.50;16.80;;;;;;4977439;28;20508;-74
2021/03/03 11:40:38;;;;;;;62.75;33.75;;;15.60;17.20;;;;;;4959486;28;20489;-73
2021/03/03 11:43:04;;;;;;;65.60;34.67;;;15.90;16.30;;;;;;4976296;28;20426;-73
2021/03/03 11:45:30;;;;;;;63.83;33.43;;;15.80;16.10;;;;;;4975308;28;20498;-74
2021/03/03 11:47:55;;;;;;;67.22;34.30;;;15.70;16.50;;;;;;4976308;28;20410;-74
2021/03/03 11:50:21;;;;;;;63.58;33.03;;;15.70;16.30;;;;;;4976119;28;20400;-74
2021/03/03 11:52:46;;;;;;;65.72;33.22;;;15.70;16.20;;;;;;4957736;28;20956;-75
2021/03/03 11:55:12;;;;;;;70.15;34.33;;;15.70;16.80;;;;;;4975004;28;20439;-72
2021/03/03 11:57:38;;;;;;;61.28;34.10;;;15.60;16.30;;;;;;4975300;28;20806;-73
2021/03/03 12:00:12;;;;;;;65.57;32.42;;;15.60;16.10;;;;;;4974741;28;20777;-72
2021/03/03 12:02:39;;;;;;;65.10;32.50;;;15.70;16.30;;;;;;4964038;28;20746;-72
2021/03/03 12:05:06;;;;;;;60.33;31.25;;;15.80;15.90;;;;;;4973047;28;20412;-72
2021/03/03 12:07:32;;;;;;;58.97;32.20;;;16.00;15.30;;;;;;4974193;28;20415;-72
2021/03/03 12:09:58;;;;;;;62.00;30.70;;;16.10;15.40;;;;;;4975072;28;20400;-72
2021/03/03 12:12:23;;;;;;;66.83;32.63;;;16.30;14.90;;;;;;4976122;28;20732;-72
2021/03/03 12:14:49;;;;;;;60.27;33.30;;;16.30;15.60;;;;;;4976104;28;20415;-71
2021/03/03 12:17:15;;;;;;;63.13;32.00;;;16.10;15.50;;;;;;4976869;28;20392;-72
2021/03/03 12:19:40;;;;;;;65.85;32.17;;;16.20;15.60;;;;;;4975826;28;20403;-73
2021/03/03 12:22:06;;;;;;;66.03;33.85;;;16.20;15.40;;;;;;4976547;28;20471;-72
2021/03/03 12:24:31;;;;;;;63.22;32.38;;;16.40;15.50;;;;;;4975733;28;20401;-73
2021/03/03 12:26:57;;;;;;;69.20;34.57;;;16.40;15.00;;;;;;4973332;28;20477;-73
2021/03/03 12:29:23;;;;;;;62.50;33.60;;;16.30;15.40;;;;;;4972312;28;20793;-72
2021/03/03 12:31:49;;;;;;;73.38;33.22;;;16.30;15.60;;;;;;4973297;28;20410;-71
2021/03/03 12:34:14;;;;;;;68.57;35.00;;;16.50;15.90;;;;;;4971731;28;20482;-73
2021/03/03 12:36:40;;;;;;;61.37;32.60;;;16.50;15.80;;;;;;4972476;28;20921;-71
2021/03/03 12:39:06;;;;;;;67.65;33.63;;;16.70;15.40;;;;;;4972933;28;20400;-72
2021/03/03 12:41:31;;;;;;;69.22;33.67;;;17.00;14.70;;;;;;4956345;28;20427;-71